createdAt,value
2023-04-04T00:00:13.634Z,1012.16
2023-04-04T00:01:13.457Z,1012.19
2023-04-04T00:02:13.750Z,1012.15
2023-04-04T00:03:13.793Z,1012.14
2023-04-04T00:04:13.966Z,1012.15
2023-04-04T00:05:12.944Z,1012.15
2023-04-04T00:06:13.461Z,1012.15
2023-04-04T00:07:13.792Z,1012.14
2023-04-04T00:08:13.715Z,1012.13
2023-04-04T00:09:14.741Z,1012.12
2023-04-04T00:10:13.665Z,1012.11
2023-04-04T00:11:13.715Z,1012.12
2023-04-04T00:12:13.677Z,1012.14
2023-04-04T00:13:13.806Z,1012.13
2023-04-04T00:14:13.752Z,1012.19
2023-04-04T00:15:13.849Z,1012.13
2023-04-04T00:16:13.788Z,1012.14
2023-04-04T00:17:14.033Z,1012.12
2023-04-04T00:18:13.183Z,1012.15
2023-04-04T00:19:13.379Z,1012.15
2023-04-04T00:20:13.275Z,1012.15
2023-04-04T00:21:13.060Z,1012.16
2023-04-04T00:22:13.172Z,1012.15
2023-04-04T00:23:13.217Z,1012.19
2023-04-04T00:24:13.392Z,1012.21
2023-04-04T00:25:13.792Z,1012.19
2023-04-04T00:26:13.660Z,1012.20
2023-04-04T00:27:13.603Z,1012.19
2023-04-04T00:28:13.828Z,1012.19
2023-04-04T00:29:13.775Z,1012.18
2023-04-04T00:30:13.618Z,1012.20
2023-04-04T00:31:13.638Z,1012.20
2023-04-04T00:32:13.720Z,1012.21
2023-04-04T00:33:13.969Z,1012.21
2023-04-04T00:34:13.146Z,1012.25
2023-04-04T00:35:13.054Z,1012.22
2023-04-04T00:36:13.046Z,1012.21
2023-04-04T00:37:13.174Z,1012.21
2023-04-04T00:38:13.074Z,1012.22
2023-04-04T00:39:12.968Z,1012.20
2023-04-04T00:40:12.902Z,1012.20
2023-04-04T00:41:13.014Z,1012.19
2023-04-04T00:42:13.146Z,1012.22
2023-04-04T00:43:13.939Z,1012.21
2023-04-04T00:44:12.824Z,1012.23
2023-04-04T00:45:13.861Z,1012.21
2023-04-04T00:46:13.938Z,1012.17
2023-04-04T00:47:13.159Z,1012.20
2023-04-04T00:48:13.335Z,1012.21
2023-04-04T00:49:13.371Z,1012.18
2023-04-04T00:50:13.609Z,1012.20
2023-04-04T00:51:13.785Z,1012.16
2023-04-04T00:52:13.891Z,1012.17
2023-04-04T00:53:13.191Z,1012.20
2023-04-04T00:54:13.199Z,1012.17
2023-04-04T00:55:13.841Z,1012.16
2023-04-04T00:56:14.096Z,1012.15
2023-04-04T00:57:13.043Z,1012.14
2023-04-04T00:58:12.943Z,1012.18
2023-04-04T00:59:13.090Z,1012.21
2023-04-04T01:00:13.023Z,1012.19
2023-04-04T01:01:13.176Z,1012.16
2023-04-04T01:02:13.324Z,1012.19
2023-04-04T01:03:13.349Z,1012.17
2023-04-04T01:04:13.298Z,1012.18
2023-04-04T01:05:15.410Z,1012.15
2023-04-04T01:06:13.512Z,1012.14
2023-04-04T01:07:13.325Z,1012.15
2023-04-04T01:08:13.126Z,1012.14
2023-04-04T01:09:12.998Z,1012.11
2023-04-04T01:10:13.099Z,1012.10
2023-04-04T01:11:13.210Z,1012.09
2023-04-04T01:12:13.359Z,1012.07
2023-04-04T01:13:13.282Z,1012.06
2023-04-04T01:14:13.577Z,1012.06
2023-04-04T01:15:13.719Z,1012.07
2023-04-04T01:16:13.599Z,1012.13
2023-04-04T01:17:13.403Z,1012.09
2023-04-04T01:18:13.678Z,1012.09
2023-04-04T01:19:14.104Z,1012.07
2023-04-04T01:20:13.360Z,1012.08
2023-04-04T01:21:13.264Z,1012.08
2023-04-04T01:22:13.442Z,1012.04
2023-04-04T01:23:13.762Z,1012.08
2023-04-04T01:24:13.825Z,1012.06
2023-04-04T01:25:13.828Z,1012.05
2023-04-04T01:26:13.698Z,1012.06
2023-04-04T01:27:14.801Z,1012.04
2023-04-04T01:28:14.977Z,1012.09
2023-04-04T01:29:12.935Z,1012.05
2023-04-04T01:30:12.778Z,1012.09
2023-04-04T01:31:13.968Z,1012.06
2023-04-04T01:32:13.505Z,1012.04
2023-04-04T01:33:13.540Z,1012.07
2023-04-04T01:34:13.861Z,1012.07
2023-04-04T01:35:14.205Z,1012.08
2023-04-04T01:36:15.084Z,1012.03
2023-04-04T01:37:13.765Z,1012.03
2023-04-04T01:38:13.857Z,1012.04
2023-04-04T01:39:13.178Z,1012.03
2023-04-04T01:40:13.286Z,1012.04
2023-04-04T01:41:13.342Z,1011.97
2023-04-04T01:42:13.262Z,1011.98
2023-04-04T01:43:13.141Z,1011.98
2023-04-04T01:44:13.221Z,1011.93
2023-04-04T01:45:13.311Z,1011.98
2023-04-04T01:46:13.174Z,1011.94
2023-04-04T01:47:13.454Z,1011.93
2023-04-04T01:48:13.371Z,1011.94
2023-04-04T01:49:13.345Z,1011.96
2023-04-04T01:50:13.513Z,1011.96
2023-04-04T01:51:13.489Z,1011.97
2023-04-04T01:52:13.404Z,1011.93
2023-04-04T01:53:13.733Z,1011.93
2023-04-04T01:54:13.670Z,1011.91
2023-04-04T01:55:13.689Z,1011.87
2023-04-04T01:56:13.525Z,1011.84
2023-04-04T01:57:13.821Z,1011.83
2023-04-04T01:58:14.056Z,1011.84
2023-04-04T01:59:13.230Z,1011.83
2023-04-04T02:00:13.102Z,1011.80
2023-04-04T02:01:13.766Z,1011.80
2023-04-04T02:02:13.757Z,1011.77
2023-04-04T02:03:13.708Z,1011.79
2023-04-04T02:04:13.609Z,1011.79
2023-04-04T02:05:13.591Z,1011.79
2023-04-04T02:06:13.763Z,1011.79
2023-04-04T02:07:13.835Z,1011.79
2023-04-04T02:08:13.914Z,1011.83
2023-04-04T02:09:13.065Z,1011.81
2023-04-04T02:10:12.938Z,1011.81
2023-04-04T02:11:12.895Z,1011.84
2023-04-04T02:12:13.030Z,1011.82
2023-04-04T02:13:12.931Z,1011.82
2023-04-04T02:14:12.847Z,1011.82
2023-04-04T02:15:13.677Z,1011.78
2023-04-04T02:16:13.476Z,1011.82
2023-04-04T02:17:13.420Z,1011.82
2023-04-04T02:18:13.351Z,1011.81
2023-04-04T02:19:14.424Z,1011.81
2023-04-04T02:20:13.286Z,1011.83
2023-04-04T02:21:13.191Z,1011.81
2023-04-04T02:22:13.040Z,1011.78
2023-04-04T02:23:13.091Z,1011.80
2023-04-04T02:24:13.332Z,1011.84
2023-04-04T02:25:13.535Z,1011.82
2023-04-04T02:26:13.504Z,1011.82
2023-04-04T02:27:13.559Z,1011.84
2023-04-04T02:28:13.663Z,1011.82
2023-04-04T02:29:13.983Z,1011.83
2023-04-04T02:30:13.053Z,1011.81
2023-04-04T02:31:13.027Z,1011.79
2023-04-04T02:32:13.023Z,1011.84
2023-04-04T02:33:13.014Z,1011.82
2023-04-04T02:34:12.914Z,1011.84
2023-04-04T02:35:12.791Z,1011.83
2023-04-04T02:36:13.806Z,1011.81
2023-04-04T02:37:13.682Z,1011.84
2023-04-04T02:38:13.488Z,1011.82
2023-04-04T02:39:13.850Z,1011.81
2023-04-04T02:40:14.166Z,1011.80
2023-04-04T02:41:13.450Z,1011.80
2023-04-04T02:42:13.436Z,1011.79
2023-04-04T02:43:13.387Z,1011.80
2023-04-04T02:44:13.318Z,1011.84
2023-04-04T02:45:13.197Z,1011.85
2023-04-04T02:46:21.262Z,1011.86
2023-04-04T02:47:13.319Z,1011.86
2023-04-04T02:48:13.393Z,1011.86
2023-04-04T02:49:13.285Z,1011.83
2023-04-04T02:50:14.453Z,1011.82
2023-04-04T02:51:13.565Z,1011.81
2023-04-04T02:52:13.375Z,1011.77
2023-04-04T02:53:13.325Z,1011.74
2023-04-04T02:54:13.196Z,1011.77
2023-04-04T02:55:13.077Z,1011.78
2023-04-04T02:56:12.983Z,1011.75
2023-04-04T02:57:12.758Z,1011.76
2023-04-04T02:58:13.648Z,1011.74
2023-04-04T02:59:13.727Z,1011.73
2023-04-04T03:00:13.518Z,1011.74
2023-04-04T03:01:13.351Z,1011.76
2023-04-04T03:02:13.472Z,1011.74
2023-04-04T03:03:13.510Z,1011.75
2023-04-04T03:04:13.870Z,1011.74
2023-04-04T03:05:12.755Z,1011.76
2023-04-04T03:06:13.557Z,1011.79
2023-04-04T03:07:13.446Z,1011.72
2023-04-04T03:08:13.314Z,1011.75
2023-04-04T03:09:13.491Z,1011.76
2023-04-04T03:10:14.562Z,1011.73
2023-04-04T03:11:13.870Z,1011.77
2023-04-04T03:12:13.802Z,1011.75
2023-04-04T03:13:13.747Z,1011.74
2023-04-04T03:14:13.794Z,1011.71
2023-04-04T03:15:13.897Z,1011.74
2023-04-04T03:16:12.805Z,1011.72
2023-04-04T03:17:13.847Z,1011.74
2023-04-04T03:18:13.984Z,1011.76
2023-04-04T03:19:18.134Z,1011.74
2023-04-04T03:20:13.121Z,1011.74
2023-04-04T03:21:13.079Z,1011.73
2023-04-04T03:22:13.074Z,1011.76
2023-04-04T03:23:13.202Z,1011.72
2023-04-04T03:24:13.078Z,1011.71
2023-04-04T03:25:14.505Z,1011.71
2023-04-04T03:26:13.613Z,1011.66
2023-04-04T03:27:13.489Z,1011.69
2023-04-04T03:28:13.480Z,1011.67
2023-04-04T03:29:13.604Z,1011.63
2023-04-04T03:30:13.713Z,1011.63
2023-04-04T03:31:13.602Z,1011.63
2023-04-04T03:32:13.672Z,1011.64
2023-04-04T03:33:13.943Z,1011.63
2023-04-04T03:34:12.858Z,1011.61
2023-04-04T03:35:13.833Z,1011.63
2023-04-04T03:36:13.977Z,1011.62
2023-04-04T03:37:13.096Z,1011.62
2023-04-04T03:38:14.011Z,1011.59
2023-04-04T03:39:12.875Z,1011.56
2023-04-04T03:40:13.808Z,1011.53
2023-04-04T03:41:13.873Z,1011.52
2023-04-04T03:42:13.760Z,1011.52
2023-04-04T03:43:13.649Z,1011.47
2023-04-04T03:44:13.512Z,1011.50
2023-04-04T03:45:13.647Z,1011.48
2023-04-04T03:46:13.605Z,1011.47
2023-04-04T03:47:13.694Z,1011.45
2023-04-04T03:48:13.614Z,1011.43
2023-04-04T03:49:13.537Z,1011.41
2023-04-04T03:50:13.517Z,1011.39
2023-04-04T03:51:13.652Z,1011.40
2023-04-04T03:52:13.541Z,1011.41
2023-04-04T03:53:13.720Z,1011.41
2023-04-04T03:54:13.688Z,1011.43
2023-04-04T03:55:13.781Z,1011.43
2023-04-04T03:56:13.670Z,1011.44
2023-04-04T03:57:13.788Z,1011.44
2023-04-04T03:58:13.898Z,1011.45
2023-04-04T03:59:13.005Z,1011.43
2023-04-04T04:00:12.954Z,1011.42
2023-04-04T04:01:12.846Z,1011.42
2023-04-04T04:02:13.777Z,1011.43
2023-04-04T04:03:15.476Z,1011.40
2023-04-04T04:04:12.968Z,1011.40
2023-04-04T04:05:12.915Z,1011.39
2023-04-04T04:06:13.368Z,1011.36
2023-04-04T04:07:13.476Z,1011.35
2023-04-04T04:08:13.999Z,1011.36
2023-04-04T04:09:12.921Z,1011.32
2023-04-04T04:10:13.010Z,1011.35
2023-04-04T04:11:12.922Z,1011.36
2023-04-04T04:12:13.218Z,1011.36
2023-04-04T04:13:13.663Z,1011.35
2023-04-04T04:14:13.721Z,1011.34
2023-04-04T04:15:13.857Z,1011.34
2023-04-04T04:16:14.064Z,1011.31
2023-04-04T04:17:13.921Z,1011.36
2023-04-04T04:18:12.803Z,1011.35
2023-04-04T04:19:13.681Z,1011.36
2023-04-04T04:20:13.775Z,1011.37
2023-04-04T04:21:13.675Z,1011.37
2023-04-04T04:22:13.596Z,1011.38
2023-04-04T04:23:13.608Z,1011.42
2023-04-04T04:24:13.556Z,1011.40
2023-04-04T04:25:13.606Z,1011.40
2023-04-04T04:26:13.689Z,1011.42
2023-04-04T04:27:13.620Z,1011.41
2023-04-04T04:28:13.626Z,1011.40
2023-04-04T04:29:13.528Z,1011.43
2023-04-04T04:30:13.459Z,1011.45
2023-04-04T04:31:13.480Z,1011.44
2023-04-04T04:32:13.360Z,1011.46
2023-04-04T04:33:13.294Z,1011.44
2023-04-04T04:34:13.154Z,1011.44
2023-04-04T04:35:13.065Z,1011.41
2023-04-04T04:36:12.959Z,1011.41
2023-04-04T04:37:12.869Z,1011.36
2023-04-04T04:38:13.822Z,1011.35
2023-04-04T04:39:13.836Z,1011.34
2023-04-04T04:40:13.821Z,1011.32
2023-04-04T04:41:13.979Z,1011.27
2023-04-04T04:42:13.094Z,1011.26
2023-04-04T04:43:13.146Z,1011.27
2023-04-04T04:44:13.800Z,1011.26
2023-04-04T04:45:13.770Z,1011.25
2023-04-04T04:46:13.900Z,1011.24
2023-04-04T04:47:13.116Z,1011.23
2023-04-04T04:48:13.013Z,1011.27
2023-04-04T04:49:13.475Z,1011.26
2023-04-04T04:50:13.715Z,1011.25
2023-04-04T04:51:13.784Z,1011.27
2023-04-04T04:52:13.668Z,1011.29
2023-04-04T04:53:14.180Z,1011.30
2023-04-04T04:54:13.031Z,1011.31
2023-04-04T04:55:12.955Z,1011.32
2023-04-04T04:56:12.888Z,1011.33
2023-04-04T04:57:13.831Z,1011.37
2023-04-04T04:58:15.095Z,1011.33
2023-04-04T04:59:12.918Z,1011.38
2023-04-04T05:00:12.915Z,1011.38
2023-04-04T05:01:12.981Z,1011.39
2023-04-04T05:02:12.938Z,1011.40
2023-04-04T05:03:13.418Z,1011.37
2023-04-04T05:04:13.356Z,1011.40
2023-04-04T05:05:13.315Z,1011.40
2023-04-04T05:06:13.422Z,1011.37
2023-04-04T05:07:13.578Z,1011.36
2023-04-04T05:08:13.476Z,1011.37
2023-04-04T05:09:13.328Z,1011.33
2023-04-04T05:10:13.280Z,1011.33
2023-04-04T05:11:13.299Z,1011.36
2023-04-04T05:12:13.166Z,1011.37
2023-04-04T05:13:13.197Z,1011.40
2023-04-04T05:14:13.383Z,1011.43
2023-04-04T05:15:13.494Z,1011.42
2023-04-04T05:16:13.594Z,1011.41
2023-04-04T05:17:13.713Z,1011.39
2023-04-04T05:18:13.756Z,1011.35
2023-04-04T05:19:13.656Z,1011.37
2023-04-04T05:20:13.579Z,1011.36
2023-04-04T05:21:13.522Z,1011.36
2023-04-04T05:22:13.618Z,1011.37
2023-04-04T05:23:13.603Z,1011.41
2023-04-04T05:24:13.497Z,1011.41
2023-04-04T05:25:13.591Z,1011.43
2023-04-04T05:26:13.521Z,1011.43
2023-04-04T05:27:13.317Z,1011.48
2023-04-04T05:28:13.204Z,1011.47
2023-04-04T05:29:13.065Z,1011.48
2023-04-04T05:30:12.968Z,1011.47
2023-04-04T05:31:12.951Z,1011.50
2023-04-04T05:32:13.422Z,1011.50
2023-04-04T05:33:13.508Z,1011.49
2023-04-04T05:34:14.130Z,1011.48
2023-04-04T05:35:14.112Z,1011.48
2023-04-04T05:36:13.112Z,1011.48
2023-04-04T05:37:13.838Z,1011.50
2023-04-04T05:38:13.133Z,1011.51
2023-04-04T05:39:13.329Z,1011.52
2023-04-04T05:40:13.206Z,1011.57
2023-04-04T05:41:13.381Z,1011.59
2023-04-04T05:42:13.264Z,1011.59
2023-04-04T05:43:13.191Z,1011.55
2023-04-04T05:44:13.020Z,1011.59
2023-04-04T05:45:13.257Z,1011.59
2023-04-04T05:46:13.258Z,1011.59
2023-04-04T05:47:13.160Z,1011.61
2023-04-04T05:48:13.090Z,1011.59
2023-04-04T05:49:13.168Z,1011.61
2023-04-04T05:50:13.153Z,1011.68
2023-04-04T05:51:13.115Z,1011.68
2023-04-04T05:52:13.083Z,1011.70
2023-04-04T05:53:13.237Z,1011.74
2023-04-04T05:54:13.136Z,1011.72
2023-04-04T05:55:13.157Z,1011.72
2023-04-04T05:56:13.358Z,1011.68
2023-04-04T05:57:13.690Z,1011.72
2023-04-04T05:58:13.710Z,1011.73
2023-04-04T05:59:14.082Z,1011.76
2023-04-04T06:00:12.999Z,1011.74
2023-04-04T06:01:13.339Z,1011.72
2023-04-04T06:02:13.508Z,1011.76
2023-04-04T06:03:13.381Z,1011.76
2023-04-04T06:04:13.583Z,1011.76
2023-04-04T06:05:13.855Z,1011.79
2023-04-04T06:06:13.877Z,1011.83
2023-04-04T06:07:12.912Z,1011.83
2023-04-04T06:08:12.960Z,1011.86
2023-04-04T06:09:12.887Z,1011.87
2023-04-04T06:10:12.860Z,1011.90
2023-04-04T06:11:14.198Z,1011.86
2023-04-04T06:12:13.222Z,1011.85
2023-04-04T06:13:13.238Z,1011.85
2023-04-04T06:14:15.083Z,1011.87
2023-04-04T06:15:13.181Z,1011.86
2023-04-04T06:16:13.181Z,1011.88
2023-04-04T06:17:13.221Z,1011.90
2023-04-04T06:18:13.159Z,1011.89
2023-04-04T06:19:13.257Z,1011.89
2023-04-04T06:20:13.433Z,1011.89
2023-04-04T06:21:13.434Z,1011.89
2023-04-04T06:22:13.458Z,1011.88
2023-04-04T06:23:23.317Z,1011.93
2023-04-04T06:24:13.381Z,1011.93
2023-04-04T06:25:13.490Z,1011.93
2023-04-04T06:26:13.681Z,1011.97
2023-04-04T06:27:13.663Z,1011.97
2023-04-04T06:28:13.596Z,1011.98
2023-04-04T06:29:13.626Z,1011.98
2023-04-04T06:30:13.653Z,1012.01
2023-04-04T06:31:13.732Z,1012.03
2023-04-04T06:32:13.698Z,1012.07
2023-04-04T06:33:13.601Z,1012.09
2023-04-04T06:34:13.765Z,1012.12
2023-04-04T06:35:13.808Z,1012.11
2023-04-04T06:36:13.737Z,1012.14
2023-04-04T06:37:13.615Z,1012.16
2023-04-04T06:38:13.594Z,1012.21
2023-04-04T06:39:13.694Z,1012.20
2023-04-04T06:40:13.756Z,1012.21
2023-04-04T06:41:14.524Z,1012.22
2023-04-04T06:42:13.792Z,1012.23
2023-04-04T06:43:13.857Z,1012.19
2023-04-04T06:44:13.713Z,1012.22
2023-04-04T06:45:13.687Z,1012.22
2023-04-04T06:46:14.716Z,1012.26
2023-04-04T06:47:13.969Z,1012.27
2023-04-04T06:48:12.898Z,1012.22
2023-04-04T06:49:12.958Z,1012.24
2023-04-04T06:50:13.214Z,1012.24
2023-04-04T06:51:13.282Z,1012.24
2023-04-04T06:52:13.304Z,1012.24
2023-04-04T06:53:13.521Z,1012.24
2023-04-04T06:54:14.149Z,1012.22
2023-04-04T06:55:13.173Z,1012.23
2023-04-04T06:56:13.165Z,1012.25
2023-04-04T06:57:13.214Z,1012.28
2023-04-04T06:58:13.356Z,1012.30
2023-04-04T06:59:13.900Z,1012.28
2023-04-04T07:00:13.008Z,1012.30
2023-04-04T07:01:14.226Z,1012.29
2023-04-04T07:02:13.928Z,1012.25
2023-04-04T07:03:12.865Z,1012.29
2023-04-04T07:04:12.933Z,1012.27
2023-04-04T07:05:13.250Z,1012.29
2023-04-04T07:06:13.305Z,1012.30
2023-04-04T07:07:13.277Z,1012.28
2023-04-04T07:08:13.228Z,1012.22
2023-04-04T07:09:25.746Z,1012.26
2023-04-04T07:10:13.487Z,1012.18
2023-04-04T07:11:13.594Z,1012.26
2023-04-04T07:12:13.625Z,1012.24
2023-04-04T07:13:18.793Z,1012.25
2023-04-04T07:14:13.658Z,1012.20
2023-04-04T07:15:14.666Z,1012.18
2023-04-04T07:16:18.837Z,1012.20
2023-04-04T07:17:24.261Z,1012.18
2023-04-04T07:18:13.529Z,1012.14
2023-04-04T07:19:13.395Z,1012.16
2023-04-04T07:20:13.792Z,1012.18
2023-04-04T07:21:13.850Z,1012.17
2023-04-04T07:22:13.721Z,1012.08
2023-04-04T07:23:13.773Z,1012.15
2023-04-04T07:24:18.844Z,1012.15
2023-04-04T07:25:13.740Z,1012.16
2023-04-04T07:26:13.777Z,1012.18
2023-04-04T07:27:13.970Z,1012.19
2023-04-04T07:28:13.614Z,1012.19
2023-04-04T07:29:13.788Z,1012.18
2023-04-04T07:30:13.670Z,1012.21
2023-04-04T07:31:13.775Z,1012.19
2023-04-04T07:32:14.095Z,1012.20
2023-04-04T07:33:13.161Z,1012.20
2023-04-04T07:34:13.136Z,1012.21
2023-04-04T07:35:13.059Z,1012.15
2023-04-04T07:36:13.055Z,1012.20
2023-04-04T07:37:13.046Z,1012.18
2023-04-04T07:38:12.870Z,1012.20
2023-04-04T07:39:13.811Z,1012.21
2023-04-04T07:40:13.680Z,1012.25
2023-04-04T07:41:13.673Z,1012.22
2023-04-04T07:42:13.611Z,1012.21
2023-04-04T07:43:13.933Z,1012.19
2023-04-04T07:44:12.875Z,1012.19
2023-04-04T07:45:13.899Z,1012.20
2023-04-04T07:46:12.864Z,1012.19
2023-04-04T07:47:12.778Z,1012.20
2023-04-04T07:48:13.672Z,1012.19
2023-04-04T07:49:13.653Z,1012.17
2023-04-04T07:50:13.676Z,1012.18
2023-04-04T07:51:13.594Z,1012.17
2023-04-04T07:52:13.656Z,1012.16
2023-04-04T07:53:13.771Z,1012.12
2023-04-04T07:54:13.717Z,1012.10
2023-04-04T07:55:16.293Z,1012.12
2023-04-04T07:56:13.975Z,1012.18
2023-04-04T07:57:13.268Z,1012.15
2023-04-04T07:58:13.456Z,1012.16
2023-04-04T07:59:13.933Z,1012.13
2023-04-04T08:00:13.100Z,1012.16
2023-04-04T08:01:13.260Z,1012.14
2023-04-04T08:02:13.377Z,1012.15
2023-04-04T08:03:13.856Z,1012.12
2023-04-04T08:05:13.911Z,1012.11
2023-04-04T08:06:12.825Z,1012.13
2023-04-04T08:07:14.026Z,1012.13
2023-04-04T08:08:13.157Z,1012.12
2023-04-04T08:09:13.165Z,1012.14
2023-04-04T08:10:13.153Z,1012.15
2023-04-04T08:11:13.198Z,1012.10
2023-04-04T08:12:13.201Z,1012.12
2023-04-04T08:13:13.095Z,1012.12
2023-04-04T08:14:13.093Z,1012.13
2023-04-04T08:15:13.344Z,1012.13
2023-04-04T08:16:13.252Z,1012.12
2023-04-04T08:17:13.432Z,1012.05
2023-04-04T08:18:13.493Z,1012.07
2023-04-04T08:19:13.912Z,1012.08
2023-04-04T08:20:12.813Z,1012.05
2023-04-04T08:21:13.713Z,1012.09
2023-04-04T08:22:13.762Z,1012.09
2023-04-04T08:23:12.776Z,1012.05
2023-04-04T08:24:13.598Z,1012.07
2023-04-04T08:25:13.500Z,1012.06
2023-04-04T08:26:13.732Z,1012.09
2023-04-04T08:27:13.792Z,1012.11
2023-04-04T08:28:14.096Z,1012.09
2023-04-04T08:29:13.114Z,1012.10
2023-04-04T08:30:13.100Z,1012.15
2023-04-04T08:31:13.177Z,1012.14
2023-04-04T08:32:14.165Z,1012.13
2023-04-04T08:33:13.182Z,1012.16
2023-04-04T08:34:18.279Z,1012.11
2023-04-04T08:35:13.585Z,1012.13
2023-04-04T08:36:13.507Z,1012.13
2023-04-04T08:37:13.371Z,1012.09
2023-04-04T08:38:13.272Z,1012.09
2023-04-04T08:39:13.561Z,1012.06
2023-04-04T08:40:13.645Z,1012.10
2023-04-04T08:41:18.587Z,1012.07
2023-04-04T08:42:13.506Z,1012.03
2023-04-04T08:43:13.422Z,1012.04
2023-04-04T08:44:18.590Z,1012.03
2023-04-04T08:45:13.818Z,1012.05
2023-04-04T08:46:14.148Z,1012.07
2023-04-04T08:47:13.455Z,1012.07
2023-04-04T08:48:13.444Z,1012.05
2023-04-04T08:49:13.887Z,1012.01
2023-04-04T08:50:12.889Z,1012.04
2023-04-04T08:51:12.875Z,1012.02
2023-04-04T08:52:13.801Z,1012.06
2023-04-04T08:53:13.001Z,1012.07
2023-04-04T08:54:12.833Z,1012.11
2023-04-04T08:55:14.075Z,1012.08
2023-04-04T08:56:13.025Z,1012.11
2023-04-04T08:57:12.831Z,1012.08
2023-04-04T08:58:13.923Z,1012.15
2023-04-04T08:59:12.946Z,1012.09
2023-04-04T09:00:13.258Z,1012.08
2023-04-04T09:01:13.490Z,1012.10
2023-04-04T09:02:13.552Z,1012.12
2023-04-04T09:03:13.867Z,1012.13
2023-04-04T09:04:12.762Z,1012.10
2023-04-04T09:05:13.943Z,1012.11
2023-04-04T09:06:12.782Z,1012.11
2023-04-04T09:07:13.696Z,1012.15
2023-04-04T09:08:14.815Z,1012.06
2023-04-04T09:09:13.684Z,1012.08
2023-04-04T09:10:14.186Z,1012.11
2023-04-04T09:11:13.390Z,1012.10
2023-04-04T09:12:13.637Z,1012.08
2023-04-04T09:13:16.591Z,1012.11
2023-04-04T09:14:12.791Z,1012.09
2023-04-04T09:15:13.774Z,1012.07
2023-04-04T09:16:13.788Z,1012.06
2023-04-04T09:17:13.838Z,1012.01
2023-04-04T09:18:14.181Z,1012.06
2023-04-04T09:19:13.347Z,1012.12
2023-04-04T09:20:13.302Z,1012.04
2023-04-04T09:21:13.166Z,1012.07
2023-04-04T09:22:14.183Z,1012.03
2023-04-04T09:23:13.265Z,1012.03
2023-04-04T09:24:13.227Z,1012.06
2023-04-04T09:25:13.099Z,1012.11
2023-04-04T09:26:13.594Z,1012.12
2023-04-04T09:27:13.697Z,1012.00
2023-04-04T09:28:13.565Z,1012.01
2023-04-04T09:29:13.569Z,1012.03
2023-04-04T09:30:13.549Z,1012.03
2023-04-04T09:31:13.725Z,1012.04
2023-04-04T09:32:13.874Z,1012.01
2023-04-04T09:33:12.897Z,1012.00
2023-04-04T09:34:12.899Z,1012.01
2023-04-04T09:35:12.760Z,1012.00
2023-04-04T09:36:14.509Z,1012.02
2023-04-04T09:37:13.493Z,1012.04
2023-04-04T09:38:13.499Z,1012.04
2023-04-04T09:39:13.851Z,1012.00
2023-04-04T09:40:12.860Z,1011.98
2023-04-04T09:41:12.724Z,1011.92
2023-04-04T09:42:13.610Z,1011.99
2023-04-04T09:43:13.586Z,1012.01
2023-04-04T09:44:14.143Z,1011.99
2023-04-04T09:45:17.125Z,1011.95
2023-04-04T09:46:14.021Z,1012.00
2023-04-04T09:47:15.599Z,1011.99
2023-04-04T09:48:13.360Z,1011.97
2023-04-04T09:49:13.664Z,1012.00
2023-04-04T09:50:13.586Z,1012.03
2023-04-04T09:51:13.925Z,1012.00
2023-04-04T09:52:12.869Z,1012.07
2023-04-04T09:53:13.791Z,1012.06
2023-04-04T09:54:26.201Z,1012.01
2023-04-04T09:55:18.313Z,1012.06
2023-04-04T09:56:13.185Z,1011.97
2023-04-04T09:57:13.468Z,1011.99
2023-04-04T09:58:13.313Z,1012.01
2023-04-04T09:59:13.863Z,1012.00
2023-04-04T10:00:12.932Z,1011.99
2023-04-04T10:01:13.045Z,1011.97
2023-04-04T10:02:13.403Z,1011.98
2023-04-04T10:03:13.282Z,1012.01
2023-04-04T10:04:13.442Z,1012.00
2023-04-04T10:05:13.590Z,1011.99
2023-04-04T10:06:13.651Z,1012.01
2023-04-04T10:07:13.807Z,1011.96
2023-04-04T10:08:13.727Z,1011.93
2023-04-04T10:09:13.885Z,1011.89
2023-04-04T10:10:13.691Z,1011.91
2023-04-04T10:11:13.555Z,1011.96
2023-04-04T10:12:13.482Z,1011.98
2023-04-04T10:13:13.342Z,1011.89
2023-04-04T10:14:13.206Z,1011.94
2023-04-04T10:15:13.233Z,1011.90
2023-04-04T10:16:13.196Z,1011.91
2023-04-04T10:17:13.255Z,1011.89
2023-04-04T10:18:13.239Z,1011.85
2023-04-04T10:19:13.485Z,1011.86
2023-04-04T10:20:13.417Z,1011.81
2023-04-04T10:21:15.870Z,1011.82
2023-04-04T10:22:13.050Z,1011.80
2023-04-04T10:23:12.969Z,1011.82
2023-04-04T10:24:13.017Z,1011.84
2023-04-04T10:25:13.101Z,1011.62
2023-04-04T10:26:13.301Z,1011.67
2023-04-04T10:27:13.325Z,1011.73
2023-04-04T10:28:13.403Z,1011.72
2023-04-04T10:29:13.507Z,1011.73
2023-04-04T10:30:13.522Z,1011.74
2023-04-04T10:31:13.728Z,1011.74
2023-04-04T10:32:13.883Z,1011.72
2023-04-04T10:33:12.990Z,1011.67
2023-04-04T10:34:12.980Z,1011.70
2023-04-04T10:35:13.155Z,1011.66
2023-04-04T10:36:13.299Z,1011.65
2023-04-04T10:37:13.648Z,1011.63
2023-04-04T10:38:14.258Z,1011.61
2023-04-04T10:39:13.501Z,1011.62
2023-04-04T10:40:13.582Z,1011.60
2023-04-04T10:41:13.567Z,1011.54
2023-04-04T10:42:13.460Z,1011.57
2023-04-04T10:43:13.508Z,1011.62
2023-04-04T10:44:13.352Z,1011.56
2023-04-04T10:45:20.399Z,1011.60
2023-04-04T10:46:12.888Z,1011.52
2023-04-04T10:47:13.651Z,1011.52
2023-04-04T10:48:13.751Z,1011.55
2023-04-04T10:49:13.802Z,1011.59
2023-04-04T10:50:12.956Z,1011.54
2023-04-04T10:51:12.816Z,1011.53
2023-04-04T10:52:13.967Z,1011.54
2023-04-04T10:53:12.904Z,1011.46
2023-04-04T10:54:13.242Z,1011.48
2023-04-04T10:55:13.701Z,1011.44
2023-04-04T10:56:13.881Z,1011.46
2023-04-04T10:57:12.777Z,1011.47
2023-04-04T10:58:13.869Z,1011.44
2023-04-04T10:59:15.075Z,1011.45
2023-04-04T11:00:13.423Z,1011.39
2023-04-04T11:01:13.405Z,1011.36
2023-04-04T11:02:13.463Z,1011.32
2023-04-04T11:03:13.778Z,1011.40
2023-04-04T11:04:14.024Z,1011.43
2023-04-04T11:05:12.953Z,1011.40
2023-04-04T11:06:12.944Z,1011.31
2023-04-04T11:07:12.838Z,1011.33
2023-04-04T11:08:13.882Z,1011.34
2023-04-04T11:09:13.059Z,1011.37
2023-04-04T11:10:12.977Z,1011.29
2023-04-04T11:11:22.290Z,1011.31
2023-04-04T11:12:13.161Z,1011.28
2023-04-04T11:13:14.325Z,1011.29
2023-04-04T11:14:13.675Z,1011.33
2023-04-04T11:15:13.646Z,1011.26
2023-04-04T11:16:13.902Z,1011.28
2023-04-04T11:17:13.016Z,1011.32
2023-04-04T11:18:27.050Z,1011.29
2023-04-04T11:19:12.922Z,1011.24
2023-04-04T11:20:12.978Z,1011.28
2023-04-04T11:21:12.825Z,1011.29
2023-04-04T11:22:13.852Z,1011.29
2023-04-04T11:23:13.757Z,1011.24
2023-04-04T11:24:13.809Z,1011.26
2023-04-04T11:25:13.772Z,1011.26
2023-04-04T11:26:13.597Z,1011.20
2023-04-04T11:27:13.544Z,1011.23
2023-04-04T11:28:13.476Z,1011.14
2023-04-04T11:29:13.411Z,1011.21
2023-04-04T11:30:13.561Z,1011.16
2023-04-04T11:31:13.511Z,1011.15
2023-04-04T11:32:13.471Z,1011.23
2023-04-04T11:33:14.181Z,1011.22
2023-04-04T11:34:13.141Z,1011.21
2023-04-04T11:35:18.425Z,1011.11
2023-04-04T11:36:13.371Z,1011.16
2023-04-04T11:37:13.267Z,1011.07
2023-04-04T11:38:13.587Z,1011.07
2023-04-04T11:39:13.605Z,1011.03
2023-04-04T11:40:13.776Z,1011.06
2023-04-04T11:41:14.014Z,1011.04
2023-04-04T11:42:12.889Z,1011.06
2023-04-04T11:43:12.979Z,1011.03
2023-04-04T11:44:18.353Z,1011.05
2023-04-04T11:45:13.341Z,1010.99
2023-04-04T11:46:13.327Z,1011.00
2023-04-04T11:47:13.760Z,1011.00
2023-04-04T11:48:13.685Z,1010.99
2023-04-04T11:49:13.605Z,1011.01
2023-04-04T11:50:13.481Z,1010.97
2023-04-04T11:51:13.853Z,1010.97
2023-04-04T11:52:13.774Z,1011.00
2023-04-04T11:53:13.707Z,1011.03
2023-04-04T11:54:13.819Z,1011.02
2023-04-04T11:55:13.908Z,1011.00
2023-04-04T11:56:12.774Z,1010.95
2023-04-04T11:57:13.784Z,1010.94
2023-04-04T11:58:13.691Z,1010.98
2023-04-04T11:59:13.650Z,1010.99
2023-04-04T12:00:13.882Z,1011.04
2023-04-04T12:01:13.175Z,1011.11
2023-04-04T12:02:13.112Z,1011.11
2023-04-04T12:03:13.132Z,1011.10
2023-04-04T12:04:13.366Z,1011.07
2023-04-04T12:05:13.590Z,1011.07
2023-04-04T12:06:13.663Z,1011.01